Time;durP1;ratioP1;P1;durP2;ratioP2;P2;SDS_P1;SDS_P2;PMS_P1;PMS_P2;Temp;Humidity;BMP_temperature;BMP_pressure;BME280_temperature;BME280_humidity;BME280_pressure;Samples;Min_cycle;Max_cycle;Signal;HPM_P1;HPM_P2
2022/04/29 00:00:08;;;;;;;0.03;0.03;;;;;;;15.77;73.70;99391.41;5053418;28;20476;-78
2022/04/29 00:02:34;;;;;;;0.00;0.00;;;;;;;15.72;74.36;99403.13;5058735;28;20025;-78
2022/04/29 00:04:59;;;;;;;0.10;0.10;;;;;;;15.70;74.20;99389.16;5065670;28;20040;-78
2022/04/29 00:07:25;;;;;;;0.10;0.10;;;;;;;15.66;74.37;99397.03;5051674;28;20108;-78
2022/04/29 00:09:50;;;;;;;0.10;0.10;;;;;;;15.64;74.31;99391.13;5051588;28;20041;-80
2022/04/29 00:12:16;;;;;;;0.00;0.00;;;;;;;15.69;73.88;99407.19;5070922;28;20060;-80
2022/04/29 00:14:41;;;;;;;0.10;0.10;;;;;;;15.66;74.06;99397.03;5059781;28;20033;-81
2022/04/29 00:17:07;;;;;;;0.10;0.10;;;;;;;15.68;73.62;99400.25;5051210;28;20029;-81
2022/04/29 00:19:33;;;;;;;0.10;0.10;;;;;;;15.72;73.10;99392.34;5051104;28;20526;-81
2022/04/29 00:21:59;;;;;;;0.03;0.03;;;;;;;15.73;73.16;99393.91;5051895;28;20083;-79
2022/04/29 00:24:24;;;;;;;0.10;0.10;;;;;;;15.73;73.15;99396.63;5051579;28;20055;-80
2022/04/29 00:26:50;;;;;;;0.08;0.08;;;;;;;15.66;73.16;99399.72;5051225;28;20033;-79
2022/04/29 00:29:15;;;;;;;0.00;0.00;;;;;;;15.63;73.22;99399.53;5052839;28;20025;-78
2022/04/29 00:31:41;;;;;;;0.10;0.10;;;;;;;15.64;73.03;99393.84;5060709;28;20067;-77
2022/04/29 00:34:06;;;;;;;0.00;0.00;;;;;;;15.64;72.82;99401.91;5056932;28;20057;-77
2022/04/29 00:36:32;;;;;;;0.10;0.10;;;;;;;15.63;73.00;99396.84;5070363;28;20071;-77
2022/04/29 00:38:58;;;;;;;0.00;0.00;;;;;;;15.67;72.91;99405.91;5066670;28;20123;-77
2022/04/29 00:41:24;;;;;;;0.10;0.10;;;;;;;15.68;72.97;99397.53;5054435;28;20500;-77
2022/04/29 00:44:19;;;;;;;0.00;0.00;;;;;;;15.79;72.67;99392.72;5069272;28;20035;-77
2022/04/29 00:46:46;;;;;;;0.00;0.00;;;;;;;15.69;72.72;99403.72;5064065;28;20443;-78
2022/04/29 00:49:14;;;;;;;0.00;0.00;;;;;;;15.69;72.62;99392.94;5052957;28;20052;-81
2022/04/29 00:51:42;;;;;;;0.00;0.00;;;;;;;15.72;72.73;99392.34;5055685;28;20044;-82
2022/04/29 00:54:12;;;;;;;0.10;0.10;;;;;;;15.71;72.57;99382.66;5066174;28;20451;-80
2022/04/29 00:56:41;;;;;;;0.10;0.10;;;;;;;15.72;72.19;99375.34;5060241;28;20492;-78
2022/04/29 00:59:12;;;;;;;0.10;0.10;;;;;;;15.69;72.18;99365.97;5070882;28;20025;-79
2022/04/29 01:01:39;;;;;;;0.08;0.08;;;;;;;15.58;72.29;99370.78;5066944;28;20115;-78
2022/04/29 01:04:04;;;;;;;0.10;0.10;;;;;;;15.60;72.16;99367.78;5050945;28;20481;-80
2022/04/29 01:06:31;;;;;;;0.00;0.00;;;;;;;15.66;71.96;99366.56;5051997;28;20029;-78
2022/04/29 01:08:56;;;;;;;0.00;0.00;;;;;;;15.74;71.77;99371.25;5051672;28;20060;-78
2022/04/29 01:11:24;;;;;;;0.00;0.00;;;;;;;15.51;72.32;99365.81;5052005;28;20459;-77
2022/04/29 01:13:51;;;;;;;0.10;0.10;;;;;;;15.52;72.46;99374.69;5050640;28;20021;-77
2022/04/29 01:16:18;;;;;;;0.00;0.00;;;;;;;15.47;72.56;99372.09;5051688;28;20036;-77
2022/04/29 01:18:46;;;;;;;0.00;0.00;;;;;;;15.41;72.55;99363.31;5051500;28;20535;-77
2022/04/29 01:21:12;;;;;;;0.10;0.10;;;;;;;15.42;72.62;99364.13;5060831;28;20039;-77
2022/04/29 01:23:38;;;;;;;0.00;0.00;;;;;;;15.49;72.19;99373.38;5059229;28;20032;-77
2022/04/29 01:26:04;;;;;;;0.00;0.00;;;;;;;15.48;72.29;99358.31;5051815;28;20024;-77
2022/04/29 01:28:31;;;;;;;0.10;0.10;;;;;;;15.45;72.75;99364.31;5060554;28;20124;-78
2022/04/29 01:30:58;;;;;;;0.00;0.00;;;;;;;15.45;72.83;99367.00;5051238;28;20037;-77
2022/04/29 01:33:28;;;;;;;0.00;0.00;;;;;;;15.45;72.56;99372.41;5066965;28;20028;-78
2022/04/29 01:35:54;;;;;;;0.03;0.03;;;;;;;15.47;72.68;99367.50;5070213;28;20024;-78
2022/04/29 01:38:19;;;;;;;0.00;0.00;;;;;;;15.58;72.13;99365.38;5069890;28;20384;-80
2022/04/29 01:40:45;;;;;;;0.00;0.00;;;;;;;15.58;72.03;99357.31;5067776;28;20035;-78
2022/04/29 01:43:11;;;;;;;0.10;0.10;;;;;;;15.65;71.75;99351.50;5054274;28;20138;-78
2022/04/29 01:45:36;;;;;;;0.10;0.10;;;;;;;15.66;71.65;99350.38;5052085;28;20070;-77
2022/04/29 01:48:02;;;;;;;0.10;0.10;;;;;;;15.61;71.70;99351.31;5050726;28;20525;-77
2022/04/29 01:50:27;;;;;;;0.00;0.00;;;;;;;15.61;71.70;99347.81;5049633;28;20048;-77
2022/04/29 01:52:53;;;;;;;0.00;0.00;;;;;;;15.72;71.25;99351.09;5050198;28;20035;-77
2022/04/29 01:55:18;;;;;;;0.00;0.00;;;;;;;15.77;70.47;99341.00;5050032;28;20056;-76
2022/04/29 01:57:48;;;;;;;0.00;0.00;;;;;;;15.44;71.70;99329.56;5051115;28;20025;-80
2022/04/29 02:00:14;;;;;;;0.00;0.00;;;;;;;15.35;71.91;99324.09;5050665;28;20070;-77
2022/04/29 02:02:39;;;;;;;0.00;0.00;;;;;;;15.32;72.16;99322.00;5081850;28;20094;-82
2022/04/29 02:05:05;;;;;;;0.10;0.10;;;;;;;15.34;72.14;99344.84;5049654;28;20503;-82
2022/04/29 02:07:30;;;;;;;0.10;0.10;;;;;;;15.31;72.47;99331.19;5049259;28;20024;-83
2022/04/29 02:09:56;;;;;;;0.00;0.00;;;;;;;15.27;72.37;99332.88;5049851;28;20039;-81
2022/04/29 02:12:22;;;;;;;0.00;0.00;;;;;;;15.30;72.36;99327.66;5058500;28;20391;-81
2022/04/29 02:14:47;;;;;;;0.00;0.00;;;;;;;15.30;72.50;99324.19;5042054;28;20179;-80
2022/04/29 02:17:13;;;;;;;0.00;0.00;;;;;;;15.26;72.69;99320.47;5046247;28;20021;-79
2022/04/29 02:19:39;;;;;;;0.00;0.00;;;;;;;15.34;72.83;99325.19;5049406;28;20028;-78
2022/04/29 02:22:08;;;;;;;0.10;0.10;;;;;;;15.42;72.43;99319.09;5051284;28;20098;-76
2022/04/29 02:24:34;;;;;;;0.00;0.00;;;;;;;15.46;72.00;99317.38;5050583;28;20021;-76
2022/04/29 02:27:00;;;;;;;0.00;0.00;;;;;;;15.45;72.20;99323.06;5050581;28;20029;-77
2022/04/29 02:29:29;;;;;;;0.10;0.10;;;;;;;15.37;72.47;99327.28;5050458;28;20036;-77
2022/04/29 02:31:56;;;;;;;0.08;0.08;;;;;;;15.31;72.48;99318.50;5054668;28;20025;-76
2022/04/29 02:34:23;;;;;;;0.00;0.00;;;;;;;15.31;72.67;99321.19;5070320;28;20071;-77
2022/04/29 02:36:49;;;;;;;0.00;0.00;;;;;;;15.27;72.62;99317.50;5051161;28;20561;-77
2022/04/29 02:39:15;;;;;;;0.10;0.10;;;;;;;15.32;72.58;99320.09;5055389;28;20044;-79
2022/04/29 02:41:40;;;;;;;0.00;0.00;;;;;;;15.30;72.79;99324.19;5050497;28;20032;-79
2022/04/29 02:44:06;;;;;;;0.10;0.10;;;;;;;15.30;72.55;99327.66;5050795;28;20078;-80
2022/04/29 02:46:32;;;;;;;0.10;0.10;;;;;;;15.30;72.31;99335.75;5050077;28;20033;-80
2022/04/29 02:48:57;;;;;;;0.10;0.10;;;;;;;15.22;72.59;99331.06;5062014;28;20035;-76
2022/04/29 02:51:23;;;;;;;0.00;0.00;;;;;;;15.28;72.61;99340.66;5051564;28;20127;-76
2022/04/29 02:53:48;;;;;;;0.10;0.10;;;;;;;15.26;72.65;99345.53;5060841;28;21491;-76
2022/04/29 02:56:13;;;;;;;0.00;0.00;;;;;;;15.20;73.31;99347.53;5054681;28;20119;-76
2022/04/29 02:58:39;;;;;;;0.00;0.00;;;;;;;15.17;73.34;99342.75;5072118;28;20089;-77
2022/04/29 03:01:04;;;;;;;0.00;0.00;;;;;;;15.12;73.67;99345.53;5059857;28;20500;-77
2022/04/29 03:03:30;;;;;;;0.00;0.00;;;;;;;15.13;73.89;99351.72;5052599;28;20400;-76
2022/04/29 03:05:56;;;;;;;0.00;0.00;;;;;;;15.12;74.06;99359.00;5054192;28;20120;-77
2022/04/29 03:08:21;;;;;;;0.00;0.00;;;;;;;15.17;73.88;99363.50;5069167;28;20028;-77
2022/04/29 03:10:47;;;;;;;0.00;0.00;;;;;;;15.20;73.92;99369.09;5067791;28;20025;-77
2022/04/29 03:13:13;;;;;;;0.25;0.25;;;;;;;15.10;74.21;99365.78;5054129;28;20032;-78
2022/04/29 03:15:39;;;;;;;0.05;0.05;;;;;;;15.10;74.39;99365.78;5051985;28;20061;-77
2022/04/29 03:18:22;;;;;;;0.05;0.05;;;;;;;15.16;74.84;99373.50;5053946;28;20068;-78
2022/04/29 03:20:55;;;;;;;0.00;0.00;;;;;;;15.14;74.34;99374.88;5057381;28;20109;-76
2022/04/29 03:23:22;;;;;;;0.00;0.00;;;;;;;15.09;74.58;99383.03;5073387;28;20142;-77
2022/04/29 03:25:47;;;;;;;0.00;0.00;;;;;;;15.11;74.49;99378.16;5073854;28;20028;-76
2022/04/29 03:28:13;;;;;;;0.10;0.10;;;;;;;15.11;74.62;99386.25;5060633;28;20037;-77
2022/04/29 03:30:38;;;;;;;0.00;0.00;;;;;;;15.18;74.51;99383.97;5052688;28;20036;-77
2022/04/29 03:33:08;;;;;;;0.00;0.00;;;;;;;15.28;74.05;99385.66;5059551;28;20515;-77
2022/04/29 03:35:45;;;;;;;0.10;0.10;;;;;;;15.23;74.01;99391.16;5053482;28;20051;-77
2022/04/29 03:38:10;;;;;;;0.10;0.10;;;;;;;15.32;73.49;99389.38;5053568;28;20134;-76
2022/04/29 03:40:36;;;;;;;0.10;0.10;;;;;;;15.29;73.88;99388.03;5053886;28;20056;-76
2022/04/29 03:43:02;;;;;;;0.00;0.00;;;;;;;15.22;74.14;99395.72;5060942;28;20025;-76
2022/04/29 03:45:28;;;;;;;0.10;0.10;;;;;;;15.11;74.72;99397.84;5062190;28;20459;-77
2022/04/29 03:47:54;;;;;;;0.10;0.10;;;;;;;15.04;75.19;99389.34;5052030;28;20032;-77
2022/04/29 03:50:23;;;;;;;0.00;0.00;;;;;;;15.12;75.52;99394.00;5057356;28;20044;-77
2022/04/29 03:52:56;;;;;;;0.00;0.00;;;;;;;15.14;75.65;99394.53;5059508;28;20047;-78
2022/04/29 03:55:24;;;;;;;0.10;0.10;;;;;;;15.25;75.65;99394.34;5067833;28;20048;-77
2022/04/29 03:57:50;;;;;;;0.10;0.10;;;;;;;15.32;75.61;99402.84;5066143;28;20017;-79
2022/04/29 04:00:16;;;;;;;0.10;0.10;;;;;;;15.37;75.31;99397.34;5053578;28;20040;-77
2022/04/29 04:02:42;;;;;;;0.10;0.10;;;;;;;15.39;75.22;99414.00;5064065;28;20511;-77
2022/04/29 04:05:08;;;;;;;0.10;0.10;;;;;;;15.47;74.83;99410.63;5053153;28;20087;-78
2022/04/29 04:07:35;;;;;;;0.10;0.10;;;;;;;15.43;74.86;99409.63;5051768;28;20029;-78
2022/04/29 04:10:00;;;;;;;0.00;0.00;;;;;;;15.42;75.07;99401.84;5050902;28;20041;-77
2022/04/29 04:12:36;;;;;;;0.10;0.10;;;;;;;15.45;74.91;99409.31;5068401;28;20020;-82
2022/04/29 04:15:01;;;;;;;0.00;0.00;;;;;;;15.47;75.03;99417.91;5055814;28;20083;-75
2022/04/29 04:17:27;;;;;;;0.10;0.10;;;;;;;15.47;75.33;99413.31;5046028;28;20025;-81
2022/04/29 04:19:52;;;;;;;0.10;0.10;;;;;;;15.62;74.54;99416.81;5051690;28;20500;-79
2022/04/29 04:22:17;;;;;;;0.10;0.10;;;;;;;15.60;75.17;99413.59;5052121;28;20029;-77
2022/04/29 04:24:43;;;;;;;0.00;0.00;;;;;;;15.66;74.84;99413.22;5052695;28;20550;-79
2022/04/29 04:27:08;;;;;;;0.00;0.00;;;;;;;15.64;74.93;99415.41;5057686;28;20107;-80
2022/04/29 04:29:34;;;;;;;0.75;0.75;;;;;;;15.72;74.97;99422.00;5060683;28;20064;-81
2022/04/29 04:31:59;;;;;;;0.20;0.20;;;;;;;15.84;74.88;99414.22;5050739;28;20033;-81
2022/04/29 04:37:08;;;;;;;0.30;0.20;;;;;;;16.13;73.66;99420.38;5052647;28;20503;-82
2022/04/29 04:39:34;;;;;;;0.77;0.77;;;;;;;16.13;73.74;99418.44;5051146;28;20123;-81
2022/04/29 04:41:59;;;;;;;0.52;0.52;;;;;;;16.30;72.96;99415.09;5052483;28;20021;-81
2022/04/29 04:44:26;;;;;;;0.10;0.10;;;;;;;16.56;71.91;99421.81;5051268;28;20029;-82
2022/04/29 04:46:51;;;;;;;0.20;0.20;;;;;;;16.76;71.66;99425.91;5050967;28;20029;-81
2022/04/29 04:49:16;;;;;;;0.10;0.10;;;;;;;17.03;70.12;99418.78;5050747;28;20557;-82
2022/04/29 04:51:42;;;;;;;0.10;0.10;;;;;;;17.52;69.14;99426.97;5050646;28;20061;-82
2022/04/29 04:54:07;;;;;;;0.10;0.10;;;;;;;17.76;67.36;99421.97;5050965;28;20524;-80
2022/04/29 04:56:33;;;;;;;0.20;0.20;;;;;;;18.24;66.38;99422.22;5050809;28;20123;-81
2022/04/29 04:58:58;;;;;;;0.10;0.10;;;;;;;18.49;64.12;99427.94;5051028;28;20121;-81
2022/04/29 05:01:24;;;;;;;0.10;0.10;;;;;;;18.90;63.56;99432.03;5050916;28;20473;-81
2022/04/29 05:03:49;;;;;;;0.10;0.10;;;;;;;19.20;62.40;99429.44;5050660;28;20047;-83
2022/04/29 05:06:15;;;;;;;0.10;0.10;;;;;;;19.54;60.84;99438.53;5050760;28;20040;-83
2022/04/29 05:08:40;;;;;;;0.10;0.10;;;;;;;19.79;60.34;99427.91;5050593;28;20472;-81
2022/04/29 05:11:05;;;;;;;0.35;0.35;;;;;;;19.82;57.90;99419.09;5050691;28;20029;-81
2022/04/29 05:13:31;;;;;;;1.15;0.47;;;;;;;19.88;58.74;99422.44;5050323;28;20074;-83
2022/04/29 05:15:57;;;;;;;0.10;0.10;;;;;;;20.04;57.94;99428.88;5050697;28;20036;-82
2022/04/29 05:18:22;;;;;;;0.20;0.20;;;;;;;20.24;58.15;99432.72;5050676;28;20472;-80
2022/04/29 05:20:48;;;;;;;0.63;0.63;;;;;;;20.51;56.87;99430.59;5050257;28;20037;-84
2022/04/29 05:23:14;;;;;;;0.60;0.60;;;;;;;20.71;57.16;99428.94;5050477;28;20103;-84
2022/04/29 05:25:40;;;;;;;0.00;0.00;;;;;;;21.13;55.25;99438.97;5050229;28;20044;-83
2022/04/29 05:28:05;;;;;;;0.00;0.00;;;;;;;21.49;55.03;99442.06;5050380;28;20053;-84
2022/04/29 05:30:31;;;;;;;0.10;0.10;;;;;;;21.74;53.48;99454.56;5050212;28;20151;-84
2022/04/29 05:32:57;;;;;;;0.28;0.28;;;;;;;21.59;52.90;99439.72;5050266;28;20035;-83
2022/04/29 05:35:23;;;;;;;0.90;0.80;;;;;;;21.29;53.42;99436.38;5051912;28;20032;-83
2022/04/29 05:37:50;;;;;;;0.10;0.10;;;;;;;20.94;54.21;99442.97;5050117;28;20401;-82
2022/04/29 05:43:00;;;;;;;0.20;0.20;;;;;;;20.59;56.07;99447.94;5051505;28;20035;-82
2022/04/29 05:45:26;;;;;;;0.65;0.45;;;;;;;20.45;56.17;99448.22;5050034;28;20025;-82
2022/04/29 05:47:51;;;;;;;0.20;0.20;;;;;;;20.18;56.71;99442.19;5049643;28;20063;-82
2022/04/29 05:50:16;;;;;;;0.20;0.20;;;;;;;20.12;57.13;99441.59;5049984;28;20077;-82
2022/04/29 05:52:42;;;;;;;0.10;0.10;;;;;;;20.04;57.65;99447.09;5049769;28;20408;-82
2022/04/29 05:55:08;;;;;;;0.20;0.20;;;;;;;19.95;58.69;99444.44;5049850;28;20098;-82
2022/04/29 05:57:33;;;;;;;0.75;0.20;;;;;;;19.98;58.02;99441.03;5049670;28;20031;-82
2022/04/29 05:59:59;;;;;;;0.22;0.22;;;;;;;19.99;58.57;99445.34;5049815;28;20124;-82
2022/04/29 06:02:25;;;;;;;0.05;0.05;;;;;;;20.12;56.88;99452.44;5049810;28;20021;-82
2022/04/29 06:04:51;;;;;;;2.83;0.90;;;;;;;20.19;57.99;99445.69;5049441;28;20799;-83
2022/04/29 06:07:16;;;;;;;1.00;0.57;;;;;;;20.28;56.85;99444.50;5050276;28;20089;-82
2022/04/29 06:09:42;;;;;;;0.63;0.63;;;;;;;20.25;57.21;99439.75;5049561;28;20025;-82
2022/04/29 06:12:08;;;;;;;0.10;0.10;;;;;;;20.28;56.17;99443.72;5049637;28;20523;-83
2022/04/29 06:14:37;;;;;;;0.17;0.17;;;;;;;20.21;56.49;99446.16;5049253;28;20070;-82
2022/04/29 06:17:03;;;;;;;0.10;0.05;;;;;;;20.05;56.89;99438.59;5049587;28;20020;-83
2022/04/29 06:19:28;;;;;;;0.50;0.50;;;;;;;19.94;56.56;99438.19;5049468;28;20481;-83
2022/04/29 06:21:54;;;;;;;1.77;0.20;;;;;;;19.72;57.17;99443.91;5049306;28;20027;-83
2022/04/29 06:24:19;;;;;;;0.15;0.15;;;;;;;19.59;58.23;99446.50;5049492;28;20029;-83
2022/04/29 06:26:45;;;;;;;0.35;0.35;;;;;;;19.46;58.51;99452.97;5049451;28;20413;-83
2022/04/29 06:29:11;;;;;;;0.77;0.60;;;;;;;19.26;58.88;99446.31;5049492;28;20036;-83
2022/04/29 06:31:36;;;;;;;0.47;0.47;;;;;;;19.06;59.83;99453.25;5049433;28;20032;-82
2022/04/29 06:34:02;;;;;;;2.72;0.55;;;;;;;18.86;60.99;99456.28;5053208;28;20029;-83
2022/04/29 06:36:28;;;;;;;0.10;0.10;;;;;;;18.85;61.58;99449.25;5053629;28;20106;-82
2022/04/29 06:38:53;;;;;;;0.00;0.00;;;;;;;18.94;61.53;99456.59;5053370;28;20394;-83
2022/04/29 06:41:19;;;;;;;0.65;0.65;;;;;;;18.82;60.91;99460.75;5053492;28;20526;-82
2022/04/29 06:43:45;;;;;;;0.10;0.10;;;;;;;18.88;61.01;99450.53;5053191;28;20033;-81
2022/04/29 06:46:10;;;;;;;0.25;0.10;;;;;;;18.92;60.90;99461.53;5053406;28;20052;-82
2022/04/29 06:48:36;;;;;;;0.35;0.35;;;;;;;18.78;61.91;99459.00;5053266;28;20060;-81
2022/04/29 06:51:01;;;;;;;0.20;0.20;;;;;;;18.75;62.16;99459.63;5053096;28;20049;-81
2022/04/29 06:53:27;;;;;;;0.45;0.45;;;;;;;18.64;62.22;99461.84;5053262;28;20112;-82
2022/04/29 06:55:53;;;;;;;0.43;0.43;;;;;;;18.64;62.02;99465.38;5053027;28;20363;-81
2022/04/29 06:58:19;;;;;;;0.10;0.10;;;;;;;18.67;62.27;99464.72;5053101;28;20040;-81
2022/04/29 07:00:45;;;;;;;0.17;0.17;;;;;;;18.66;62.50;99465.88;5053000;28;20033;-81
2022/04/29 07:03:11;;;;;;;0.10;0.10;;;;;;;18.51;62.22;99464.41;5053170;28;20128;-81
2022/04/29 07:05:38;;;;;;;0.52;0.52;;;;;;;18.52;62.21;99459.81;5052924;28;20112;-82
2022/04/29 07:08:04;;;;;;;0.03;0.03;;;;;;;18.53;62.07;99464.91;5053045;28;20029;-82
2022/04/29 07:10:30;;;;;;;0.70;0.70;;;;;;;18.45;62.30;99462.19;5053016;28;20124;-82
2022/04/29 07:12:55;;;;;;;0.17;0.17;;;;;;;18.50;62.36;99467.44;5052602;28;20104;-81
2022/04/29 07:15:21;;;;;;;0.00;0.00;;;;;;;18.44;62.37;99464.09;5052859;28;20460;-81
2022/04/29 07:17:47;;;;;;;0.63;0.63;;;;;;;18.41;62.43;99467.44;5052599;28;20123;-81
2022/04/29 07:20:14;;;;;;;0.30;0.30;;;;;;;18.40;62.88;99460.44;5052816;28;20060;-80
2022/04/29 07:22:40;;;;;;;0.32;0.32;;;;;;;18.38;62.28;99458.06;5052457;28;20028;-82
2022/04/29 07:25:08;;;;;;;0.13;0.13;;;;;;;18.32;63.03;99463.94;5052705;28;20472;-81
2022/04/29 07:27:34;;;;;;;0.00;0.00;;;;;;;18.05;63.98;99472.03;5052592;28;20082;-83
2022/04/29 07:30:00;;;;;;;6.72;1.85;;;;;;;18.03;64.81;99462.63;5052865;28;20033;-82
2022/04/29 07:32:27;;;;;;;0.10;0.10;;;;;;;18.11;64.58;99467.25;5052459;28;20033;-82
2022/04/29 07:43:05;;;;;;;0.05;0.05;;;;;;;18.60;63.61;99461.69;5053740;28;20106;-83
2022/04/29 07:45:31;;;;;;;0.30;0.30;;;;;;;18.72;63.72;99461.88;5052348;28;20033;-83
2022/04/29 07:47:59;;;;;;;0.08;0.08;;;;;;;18.97;62.70;99470.31;5052095;28;20025;-84
2022/04/29 07:50:24;;;;;;;0.10;0.10;;;;;;;19.07;61.66;99471.88;5052165;28;20469;-84
2022/04/29 07:52:49;;;;;;;0.00;0.00;;;;;;;19.20;61.61;99468.19;5052071;28;20025;-83
2022/04/29 07:55:15;;;;;;;0.63;0.35;;;;;;;19.27;60.26;99464.97;5052233;28;20033;-84
2022/04/29 07:57:40;;;;;;;0.73;0.57;;;;;;;19.30;60.24;99466.25;5052320;28;20037;-82
2022/04/29 08:00:07;;;;;;;0.22;0.22;;;;;;;19.34;60.41;99473.41;5052105;28;20029;-84
2022/04/29 08:02:32;;;;;;;0.38;0.38;;;;;;;19.43;59.94;99473.38;5052044;28;20511;-84
2022/04/29 08:04:57;;;;;;;0.00;0.00;;;;;;;19.31;60.07;99482.19;5051846;28;20120;-82
2022/04/29 08:07:23;;;;;;;0.10;0.10;;;;;;;19.27;60.29;99470.38;5051937;28;20021;-83
2022/04/29 08:09:49;;;;;;;3.20;0.45;;;;;;;19.33;60.38;99479.16;5051753;28;20029;-83
2022/04/29 08:12:14;;;;;;;7.68;0.52;;;;;;;19.39;60.16;99474.34;5051862;28;20025;-81
2022/04/29 08:14:40;;;;;;;0.00;0.00;;;;;;;19.30;60.87;99467.03;5051563;28;20040;-82
2022/04/29 08:17:06;;;;;;;0.30;0.30;;;;;;;19.23;60.47;99466.75;5051822;28;20079;-81
2022/04/29 08:19:31;;;;;;;0.35;0.35;;;;;;;19.21;60.99;99471.69;5051808;28;20051;-82
2022/04/29 08:21:57;;;;;;;0.00;0.00;;;;;;;19.23;60.54;99468.66;5051482;28;20052;-81
2022/04/29 08:24:23;;;;;;;0.00;0.00;;;;;;;19.15;61.09;99462.13;5051632;28;20033;-82
2022/04/29 08:26:48;;;;;;;0.10;0.10;;;;;;;19.12;61.62;99469.00;5051415;28;20039;-82
2022/04/29 08:29:14;;;;;;;0.40;0.40;;;;;;;19.08;61.17;99467.25;5051556;28;20025;-81
2022/04/29 08:31:39;;;;;;;0.40;0.40;;;;;;;19.03;61.19;99460.88;5051297;28;20025;-82
2022/04/29 08:34:05;;;;;;;0.25;0.25;;;;;;;19.02;61.05;99464.72;5051525;28;20115;-81
2022/04/29 08:36:30;;;;;;;0.20;0.20;;;;;;;18.92;61.42;99459.66;5051451;28;20162;-81
2022/04/29 08:38:56;;;;;;;0.85;0.85;;;;;;;18.91;61.59;99454.50;5051239;28;20067;-83
2022/04/29 08:41:22;;;;;;;0.10;0.10;;;;;;;18.98;61.45;99458.34;5051050;28;20029;-82
2022/04/29 08:43:49;;;;;;;0.35;0.35;;;;;;;19.02;59.90;99451.16;5051075;28;20083;-83
2022/04/29 08:46:15;;;;;;;0.13;0.13;;;;;;;19.14;59.43;99461.34;5051208;28;20385;-84
2022/04/29 08:48:43;;;;;;;0.40;0.40;;;;;;;19.17;55.48;99449.84;5050843;28;20035;-82
2022/04/29 08:51:08;;;;;;;0.10;0.10;;;;;;;19.29;55.17;99459.25;5050916;28;20068;-82
2022/04/29 08:53:35;;;;;;;0.60;0.60;;;;;;;19.47;54.29;99449.09;5050997;28;20029;-83
2022/04/29 08:58:47;;;;;;;0.75;0.75;;;;;;;19.76;54.29;99444.81;5052072;28;20043;-82
2022/04/29 09:01:16;;;;;;;0.38;0.38;;;;;;;19.90;53.32;99439.19;5050841;28;20029;-82
2022/04/29 09:03:43;;;;;;;0.10;0.10;;;;;;;19.94;52.20;99446.34;5050718;28;20067;-82
2022/04/29 09:06:08;;;;;;;0.20;0.20;;;;;;;20.11;52.38;99444.66;5050930;28;20055;-82
2022/04/29 09:08:41;;;;;;;0.30;0.30;;;;;;;20.29;50.40;99451.53;5050893;28;20112;-82
2022/04/29 09:11:08;;;;;;;0.70;0.70;;;;;;;20.28;51.45;99444.50;5050835;28;20110;-83
2022/04/29 09:13:38;;;;;;;0.20;0.20;;;;;;;20.38;52.85;99442.53;5050651;28;20033;-82
2022/04/29 09:16:06;;;;;;;0.15;0.15;;;;;;;20.52;51.82;99434.09;5050650;28;20067;-82
2022/04/29 09:18:34;;;;;;;0.10;0.10;;;;;;;20.54;51.83;99427.19;5050635;28;20055;-82
2022/04/29 09:21:03;;;;;;;0.20;0.20;;;;;;;20.58;52.67;99424.59;5050419;28;20120;-83
2022/04/29 09:23:29;;;;;;;0.00;0.00;;;;;;;20.47;53.56;99432.41;5050573;28;20029;-82
2022/04/29 09:25:57;;;;;;;0.30;0.30;;;;;;;20.47;54.06;99430.47;5050324;28;20057;-83
2022/04/29 09:28:24;;;;;;;0.10;0.10;;;;;;;20.69;53.68;99431.22;5050545;28;20492;-83
2022/04/29 09:30:54;;;;;;;0.08;0.08;;;;;;;20.73;54.04;99421.31;5049876;28;20057;-82
2022/04/29 09:33:21;;;;;;;0.10;0.10;;;;;;;20.80;52.71;99426.22;5050374;28;20057;-84
2022/04/29 09:35:48;;;;;;;0.22;0.22;;;;;;;20.93;52.71;99425.09;5049782;28;20025;-83
2022/04/29 09:41:00;;;;;;;0.88;0.88;;;;;;;20.75;48.19;99424.47;5051335;28;20044;-82
2022/04/29 09:43:44;;;;;;;0.15;0.15;;;;;;;20.57;50.82;99412.16;5050168;28;20491;-82
2022/04/29 09:46:14;;;;;;;0.20;0.20;;;;;;;20.31;47.40;99419.41;5050164;28;20108;-82
2022/04/29 09:48:52;;;;;;;0.20;0.20;;;;;;;20.27;47.45;99401.41;5049904;28;20032;-82
2022/04/29 09:51:46;;;;;;;1.45;1.45;;;;;;;20.29;49.37;99397.22;5050005;28;20060;-82
2022/04/29 09:54:24;;;;;;;0.25;0.25;;;;;;;20.37;49.64;99406.41;5049971;28;20048;-82
2022/04/29 09:57:12;;;;;;;0.40;0.40;;;;;;;20.52;49.38;99396.88;5049748;28;20514;-82
2022/04/29 09:59:43;;;;;;;0.20;0.20;;;;;;;20.64;50.27;99402.34;5049996;28;20485;-82
2022/04/29 10:02:10;;;;;;;0.30;0.30;;;;;;;20.67;48.68;99400.88;5049835;28;20075;-82
2022/04/29 10:04:40;;;;;;;2.58;0.30;;;;;;;20.62;49.10;99392.94;5049834;28;20029;-82
2022/04/29 10:07:07;;;;;;;0.43;0.43;;;;;;;20.64;50.45;99390.66;5048966;28;20075;-83
2022/04/29 10:09:35;;;;;;;1.10;0.95;;;;;;;20.56;50.61;99391.56;5083318;28;20025;-83
2022/04/29 10:12:04;;;;;;;1.75;0.50;;;;;;;20.40;49.82;99386.75;5049529;28;20029;-83
2022/04/29 10:14:31;;;;;;;0.10;0.10;;;;;;;20.36;51.02;99385.81;5049591;28;20033;-82
2022/04/29 10:22:53;;;;;;;0.10;0.10;;;;;;;20.06;48.71;99379.69;5050717;28;20090;-83
2022/04/29 10:25:20;;;;;;;0.28;0.28;;;;;;;20.06;49.89;99383.19;5049648;28;20067;-82
2022/04/29 10:27:49;;;;;;;0.15;0.15;;;;;;;20.02;50.20;99370.59;5049152;28;20443;-82
2022/04/29 10:30:17;;;;;;;0.32;0.30;;;;;;;20.06;50.67;99366.91;5049450;28;20021;-83
2022/04/29 10:33:06;;;;;;;0.77;0.77;;;;;;;20.15;51.36;99383.09;5049241;28;20025;-82
2022/04/29 10:35:43;;;;;;;0.10;0.10;;;;;;;20.27;50.49;99376.94;5049442;28;20033;-82
2022/04/29 10:38:18;;;;;;;0.70;0.70;;;;;;;20.35;50.54;99386.13;5049387;28;20127;-82
2022/04/29 10:40:45;;;;;;;0.00;0.00;;;;;;;20.41;49.88;99385.63;5049024;28;20486;-82
2022/04/29 10:43:13;;;;;;;0.20;0.20;;;;;;;20.53;47.47;99381.34;5049490;28;20033;-83
2022/04/29 10:46:03;;;;;;;0.52;0.52;;;;;;;20.47;45.77;99381.56;5049363;28;20086;-81
2022/04/29 10:48:37;;;;;;;0.20;0.20;;;;;;;20.62;48.09;99382.06;5049280;28;20033;-81
2022/04/29 10:51:21;;;;;;;0.32;0.32;;;;;;;20.79;47.44;99379.19;5048902;28;20053;-82
2022/04/29 10:53:51;;;;;;;0.10;0.10;;;;;;;20.94;47.69;99360.66;5048935;28;20021;-82
2022/04/29 10:56:32;;;;;;;0.10;0.10;;;;;;;21.17;47.94;99368.38;5049385;28;20032;-82
2022/04/29 10:59:09;;;;;;;0.00;0.00;;;;;;;21.20;43.50;99379.38;5050261;28;20075;-83
2022/04/29 11:01:36;;;;;;;0.17;0.17;;;;;;;21.21;43.94;99361.91;5049277;28;20129;-82
2022/04/29 11:04:06;;;;;;;0.20;0.20;;;;;;;21.36;44.48;99362.34;5048941;28;20116;-83
2022/04/29 11:06:38;;;;;;;0.00;0.00;;;;;;;21.17;42.58;99360.22;5049226;28;20512;-83
2022/04/29 11:09:35;;;;;;;0.00;0.00;;;;;;;21.09;43.49;99356.47;5048937;28;20060;-82
2022/04/29 11:12:02;;;;;;;0.47;0.47;;;;;;;21.00;43.60;99353.84;5050259;28;20052;-82
2022/04/29 11:14:28;;;;;;;0.85;0.77;;;;;;;21.04;44.82;99341.16;5049079;28;20029;-82
2022/04/29 11:17:08;;;;;;;0.63;0.63;;;;;;;21.11;43.08;99348.75;5048948;28;20037;-81
2022/04/29 11:19:47;;;;;;;0.88;0.30;;;;;;;21.11;43.79;99340.59;5051880;28;20036;-81
2022/04/29 11:25:05;;;;;;;0.63;0.63;;;;;;;21.23;43.20;99348.75;5053921;28;20553;-80
2022/04/29 11:27:37;;;;;;;0.85;0.65;;;;;;;21.07;41.51;99339.72;5052622;28;20460;-82
2022/04/29 11:30:03;;;;;;;0.10;0.10;;;;;;;21.16;43.09;99328.72;5052309;28;20036;-82
2022/04/29 11:32:30;;;;;;;0.08;0.08;;;;;;;21.23;42.93;99326.22;5052275;28;20536;-82
2022/04/29 11:35:00;;;;;;;0.20;0.20;;;;;;;21.22;43.17;99330.84;5052319;28;20025;-81
2022/04/29 11:37:33;;;;;;;0.30;0.30;;;;;;;21.25;43.40;99330.19;5052698;28;20028;-82
2022/04/29 11:40:04;;;;;;;0.50;0.50;;;;;;;21.24;42.50;99328.59;5052283;28;20381;-81
2022/04/29 11:42:30;;;;;;;0.28;0.28;;;;;;;21.22;43.65;99336.28;5052442;28;20051;-81
2022/04/29 11:45:04;;;;;;;1.40;1.30;;;;;;;21.21;44.20;99328.47;5052193;28;20120;-82
2022/04/29 11:47:34;;;;;;;0.30;0.30;;;;;;;21.12;42.39;99328.59;5052372;28;20037;-83
2022/04/29 11:50:01;;;;;;;0.40;0.40;;;;;;;21.13;43.19;99323.94;5051673;28;20144;-83
2022/04/29 11:52:31;;;;;;;0.17;0.17;;;;;;;21.15;42.84;99322.47;5052472;28;20021;-82
2022/04/29 11:55:12;;;;;;;0.80;0.80;;;;;;;21.04;43.62;99327.56;5051797;28;20029;-83
2022/04/29 11:57:46;;;;;;;2.97;1.23;;;;;;;21.02;43.71;99316.25;5053220;28;20452;-82
2022/04/29 12:00:25;;;;;;;0.17;0.17;;;;;;;20.98;44.19;99309.09;5052185;28;20036;-83
2022/04/29 12:02:51;;;;;;;1.02;1.02;;;;;;;20.89;43.53;99315.44;5051884;28;20079;-82